createdAt,value
2022-10-11T00:05:29.916Z,9.70
2022-10-11T00:11:31.824Z,9.90
2022-10-11T00:17:34.277Z,6.10
2022-10-11T00:23:36.496Z,7.17
2022-10-11T00:29:38.604Z,7.80
2022-10-11T00:35:41.846Z,6.37
2022-10-11T00:41:43.603Z,7.67
2022-10-11T00:47:45.323Z,5.70
2022-10-11T00:53:50.963Z,6.73
2022-10-11T00:59:55.185Z,9.97
2022-10-11T01:05:57.066Z,7.73
2022-10-11T01:12:00.677Z,5.17
2022-10-11T01:18:14.733Z,7.20
2022-10-11T01:24:22.481Z,10.80
2022-10-11T01:30:27.703Z,6.73
2022-10-11T01:36:40.551Z,5.20
2022-10-11T01:42:43.924Z,5.53
2022-10-11T01:48:55.752Z,6.50
2022-10-11T01:55:21.702Z,5.20
2022-10-11T02:01:29.995Z,6.37
2022-10-11T02:07:52.150Z,10.07
2022-10-11T02:14:00.600Z,7.60
2022-10-11T02:20:09.673Z,7.90
2022-10-11T02:26:14.755Z,10.43
2022-10-11T02:32:17.829Z,6.83
2022-10-11T02:38:24.989Z,6.53
2022-10-11T02:44:35.474Z,6.00
2022-10-11T02:50:39.811Z,6.43
2022-10-11T02:56:41.841Z,6.90
2022-10-11T03:02:43.772Z,4.73
2022-10-11T03:08:45.687Z,5.77
2022-10-11T03:14:47.523Z,5.93
2022-10-11T03:20:49.330Z,6.03
2022-10-11T03:26:51.394Z,32.10
2022-10-11T03:32:53.266Z,9.50
2022-10-11T03:38:55.070Z,6.37
2022-10-11T03:44:57.411Z,6.73
2022-10-11T03:50:59.266Z,5.00
2022-10-11T03:57:01.070Z,7.60
2022-10-11T04:03:06.134Z,5.17
2022-10-11T04:09:07.947Z,7.03
2022-10-11T04:15:13.550Z,5.47
2022-10-11T04:21:15.598Z,7.33
2022-10-11T04:27:17.643Z,8.20
2022-10-11T04:33:19.487Z,6.10
2022-10-11T04:39:21.368Z,7.20
2022-10-11T04:45:23.293Z,5.20
2022-10-11T04:51:25.491Z,6.20
2022-10-11T04:57:27.498Z,5.07
2022-10-11T05:03:29.710Z,5.13
2022-10-11T05:09:31.579Z,4.83
2022-10-11T05:15:34.110Z,4.60
2022-10-11T05:21:36.088Z,4.90
2022-10-11T05:27:38.160Z,4.57
2022-10-11T05:33:46.450Z,4.07
2022-10-11T05:46:07.488Z,5.30
2022-10-11T05:52:10.808Z,4.03
2022-10-11T05:58:18.813Z,6.20
2022-10-11T06:04:20.686Z,6.90
2022-10-11T06:10:22.526Z,7.63
2022-10-11T06:16:25.195Z,6.87
2022-10-11T06:22:27.608Z,6.07
2022-10-11T06:28:29.875Z,9.77
2022-10-11T06:34:31.655Z,4.87
2022-10-11T06:40:33.405Z,6.83
2022-10-11T06:46:35.136Z,6.90
2022-10-11T06:52:37.022Z,6.63
2022-10-11T06:58:40.025Z,5.70
2022-10-11T07:04:41.823Z,6.97
2022-10-11T07:10:43.756Z,5.30
2022-10-11T07:16:45.587Z,5.60
2022-10-11T07:22:47.474Z,6.60
2022-10-11T07:28:49.402Z,7.10
2022-10-11T07:34:51.172Z,7.70
2022-10-11T07:40:52.918Z,8.60
2022-10-11T07:46:54.634Z,7.80
2022-10-11T07:52:56.466Z,6.80
2022-10-11T07:59:01.730Z,8.20
2022-10-11T08:05:03.963Z,8.77
2022-10-11T08:11:06.516Z,9.97
2022-10-11T08:17:09.424Z,8.63
2022-10-11T08:23:11.534Z,7.97
2022-10-11T08:29:14.559Z,8.03
2022-10-11T08:35:17.223Z,7.40
2022-10-11T08:41:55.623Z,6.83
2022-10-11T08:48:30.634Z,6.27
2022-10-11T08:54:48.472Z,6.33
2022-10-11T09:01:00.220Z,5.90
2022-10-11T09:07:20.252Z,5.73
2022-10-11T09:27:18.672Z,4.80
2022-10-11T16:24:06.954Z,25.00
2022-10-11T16:30:12.259Z,28.30
2022-10-11T16:36:41.726Z,34.87
2022-10-11T16:42:45.993Z,19.57
2022-10-11T16:48:50.232Z,14.67
2022-10-11T16:54:52.120Z,15.83
2022-10-11T17:00:54.224Z,20.50
2022-10-11T17:06:56.723Z,17.27
2022-10-11T17:12:58.582Z,13.53
2022-10-11T17:19:00.900Z,16.40
2022-10-11T17:25:03.908Z,21.97
2022-10-11T17:31:06.297Z,25.67
2022-10-11T17:37:10.220Z,22.30
2022-10-11T17:43:12.110Z,17.80
2022-10-11T17:49:14.639Z,17.83
2022-10-11T17:55:16.853Z,18.40
2022-10-11T18:01:21.207Z,17.17
2022-10-11T18:07:24.389Z,15.93
2022-10-11T18:13:26.294Z,17.07
2022-10-11T18:19:28.337Z,11.63
2022-10-11T18:25:33.696Z,10.67
2022-10-11T18:31:36.063Z,12.90
2022-10-11T18:37:38.085Z,18.70
2022-10-11T18:43:40.021Z,17.57
2022-10-11T18:49:41.954Z,15.37
2022-10-11T18:55:43.764Z,34.07
2022-10-11T19:01:46.382Z,29.73
2022-10-11T19:07:48.408Z,21.33
2022-10-11T19:13:58.473Z,16.30
2022-10-11T19:20:00.328Z,12.80
2022-10-11T19:26:02.723Z,13.27
2022-10-11T19:32:04.963Z,12.70
2022-10-11T19:38:06.805Z,13.73
2022-10-11T19:44:08.988Z,11.67
2022-10-11T19:50:10.931Z,10.27
2022-10-11T19:56:15.758Z,9.93
2022-10-11T20:02:17.527Z,8.93
2022-10-11T20:08:19.411Z,11.37
2022-10-11T20:14:21.389Z,12.67
2022-10-11T20:20:23.191Z,11.83
2022-10-11T20:26:26.674Z,8.40
2022-10-11T20:32:28.760Z,10.33
2022-10-11T20:38:32.164Z,7.73
2022-10-11T20:44:33.993Z,7.90
2022-10-11T20:50:35.934Z,9.73
2022-10-11T20:56:38.807Z,11.60
2022-10-11T21:02:40.563Z,9.80
2022-10-11T21:08:42.524Z,9.00
2022-10-11T21:14:44.658Z,10.50
2022-10-11T21:20:46.729Z,8.13
2022-10-11T21:26:48.508Z,7.43
2022-10-11T21:32:51.081Z,9.10
2022-10-11T21:38:53.430Z,9.40
2022-10-11T21:44:55.250Z,9.97
2022-10-11T21:50:57.044Z,12.07
2022-10-11T21:56:58.872Z,9.90
2022-10-11T22:03:00.649Z,9.97
2022-10-11T22:09:03.918Z,8.13
2022-10-11T22:15:06.476Z,8.10
2022-10-11T22:21:13.705Z,9.13
2022-10-11T22:27:15.686Z,10.37
2022-10-11T22:33:17.513Z,10.77
2022-10-11T22:39:19.358Z,10.57
2022-10-11T22:45:21.226Z,10.43
2022-10-11T22:51:23.342Z,11.93
2022-10-11T22:57:25.333Z,12.00
2022-10-11T23:03:27.221Z,10.17
2022-10-11T23:09:29.194Z,11.90
2022-10-11T23:15:31.037Z,10.23
2022-10-11T23:21:32.859Z,12.50
2022-10-11T23:27:34.846Z,11.23
2022-10-11T23:33:37.140Z,9.50
2022-10-11T23:39:38.997Z,13.80
2022-10-11T23:45:40.778Z,10.73
2022-10-11T23:51:42.610Z,12.87
2022-10-11T23:57:44.447Z,10.43
